Time;durP1;ratioP1;P1;durP2;ratioP2;P2;SDS_P1;SDS_P2;PMS_P1;PMS_P2;Temp;Humidity;BMP_temperature;BMP_pressure;BME280_temperature;BME280_humidity;BME280_pressure;Samples;Min_cycle;Max_cycle;Signal;HPM_P1;HPM_P2
2021/05/30 00:00:34;;;;;;;6.35;4.00;;;;;;;10.63;71.07;100802.06;1708467;82;25657;-75
2021/05/30 00:03:00;;;;;;;10.65;4.65;;;;;;;10.58;71.17;100805.63;1707233;82;25723;-75
2021/05/30 00:05:26;;;;;;;8.85;4.87;;;;;;;10.53;71.69;100809.18;1707412;82;25317;-75
2021/05/30 00:07:56;;;;;;;7.25;4.25;;;;;;;10.44;71.89;100799.98;1706358;82;25144;-75
2021/05/30 00:10:23;;;;;;;8.05;3.92;;;;;;;10.40;71.95;100802.58;1708660;82;25148;-82
2021/05/30 00:12:50;;;;;;;6.08;4.22;;;;;;;10.39;71.85;100798.34;1709057;82;26198;-82
2021/05/30 00:15:16;;;;;;;8.03;4.33;;;;;;;10.40;72.03;100797.36;1708729;82;25276;-82
2021/05/30 00:17:42;;;;;;;7.42;4.00;;;;;;;10.41;71.96;100805.52;1682170;82;25249;-81
2021/05/30 00:20:11;;;;;;;7.72;3.95;;;;;;;10.41;72.00;100802.91;1708749;82;25510;-82
2021/05/30 00:22:38;;;;;;;9.20;4.20;;;;;;;10.39;72.06;100810.56;1708821;82;25359;-81
2021/05/30 00:25:07;;;;;;;5.62;3.40;;;;;;;10.35;72.15;100808.75;1708472;82;25509;-82
2021/05/30 00:27:33;;;;;;;5.72;3.65;;;;;;;10.36;72.31;100806.95;1706436;82;25468;-82
2021/05/30 00:30:01;;;;;;;5.50;4.03;;;;;;;10.34;72.78;100808.42;1708847;82;25651;-82
2021/05/30 00:32:27;;;;;;;5.83;3.22;;;;;;;10.30;72.57;100813.61;1707031;82;25659;-82
2021/05/30 00:34:54;;;;;;;6.62;3.52;;;;;;;10.31;72.97;100817.03;1706809;82;25450;-75
2021/05/30 00:37:21;;;;;;;5.00;3.40;;;;;;;10.28;72.93;100809.02;1705951;82;25568;-75
2021/05/30 00:39:47;;;;;;;4.85;3.47;;;;;;;10.30;73.21;100812.79;1706824;82;25647;-82
2021/05/30 00:42:13;;;;;;;5.37;3.22;;;;;;;10.27;73.09;100806.53;1708687;82;25493;-82
2021/05/30 00:44:40;;;;;;;4.70;3.20;;;;;;;10.25;73.63;100814.52;1706194;82;25573;-82
2021/05/30 00:47:06;;;;;;;6.50;3.35;;;;;;;10.25;73.46;100808.47;1708506;82;25687;-75
2021/05/30 00:49:32;;;;;;;4.40;3.23;;;;;;;10.26;73.90;100812.72;1708102;82;25642;-75
2021/05/30 00:51:58;;;;;;;4.17;2.87;;;;;;;10.23;73.71;100815.98;1706562;82;25241;-82
2021/05/30 00:54:26;;;;;;;9.38;3.30;;;;;;;10.22;74.08;100813.52;1707534;82;25159;-75
2021/05/30 00:56:52;;;;;;;5.12;3.22;;;;;;;10.17;74.26;100811.84;1707926;82;25183;-75
2021/05/30 00:59:18;;;;;;;3.62;3.02;;;;;;;10.15;74.38;100808.09;1706592;82;25511;-75
2021/05/30 01:01:44;;;;;;;4.60;3.00;;;;;;;10.15;74.33;100815.92;1706853;82;25486;-75
2021/05/30 01:04:11;;;;;;;4.12;2.90;;;;;;;10.18;74.23;100810.88;1709278;82;25511;-75
2021/05/30 01:06:39;;;;;;;4.65;3.27;;;;;;;10.21;74.24;100811.39;1707702;82;26031;-75
2021/05/30 01:09:06;;;;;;;4.22;2.70;;;;;;;10.21;74.06;100812.70;1707183;82;26413;-75
2021/05/30 01:11:33;;;;;;;4.17;2.45;;;;;;;10.23;74.45;100812.56;1706141;82;25624;-75
2021/05/30 01:13:59;;;;;;;3.92;2.95;;;;;;;10.19;74.56;100811.20;1707531;82;25677;-82
2021/05/30 01:16:27;;;;;;;3.70;2.75;;;;;;;10.18;74.60;100814.31;1706974;82;25932;-82
2021/05/30 01:18:59;;;;;;;4.67;3.22;;;;;;;10.19;74.45;100810.72;1707710;82;25489;-82
2021/05/30 01:21:27;;;;;;;5.00;2.52;;;;;;;10.23;74.29;100815.98;1708365;82;25576;-82
2021/05/30 01:23:56;;;;;;;4.77;3.03;;;;;;;10.28;74.62;100812.93;1708227;82;25167;-82
2021/05/30 01:26:23;;;;;;;5.07;2.60;;;;;;;10.27;74.48;100806.53;1706932;82;25803;-81
2021/05/30 01:28:49;;;;;;;6.90;2.55;;;;;;;10.25;74.22;100807.98;1706451;82;25717;-75
2021/05/30 01:31:16;;;;;;;5.22;2.85;;;;;;;10.26;74.58;100810.10;1707534;82;25475;-75
2021/05/30 01:33:43;;;;;;;4.42;2.83;;;;;;;10.24;74.29;100812.88;1706488;82;25683;-75
2021/05/30 01:36:09;;;;;;;3.98;2.60;;;;;;;10.26;74.53;100813.56;1706348;82;25162;-75
2021/05/30 01:38:37;;;;;;;4.25;2.33;;;;;;;10.26;74.40;100809.64;1707745;82;26179;-75
2021/05/30 01:41:05;;;;;;;3.90;2.37;;;;;;;10.28;74.52;100816.03;1706001;82;25598;-75
2021/05/30 01:43:31;;;;;;;4.60;2.40;;;;;;;10.29;74.44;100812.47;1706341;82;25475;-75
2021/05/30 01:45:59;;;;;;;5.22;3.60;;;;;;;10.29;74.59;100811.98;1707725;82;25753;-82
2021/05/30 01:48:26;;;;;;;3.47;2.30;;;;;;;10.28;74.31;100814.73;1707923;82;25522;-82
2021/05/30 01:50:52;;;;;;;5.22;2.27;;;;;;;10.28;74.74;100812.93;1686217;82;27365;-82
2021/05/30 01:53:24;;;;;;;3.12;2.20;;;;;;;10.26;74.89;100810.95;1706314;82;25621;-82
2021/05/30 01:58:25;;;;;;;3.47;2.37;;;;;;;10.24;74.57;100815.50;1707960;82;25155;-82
2021/05/30 02:00:51;;;;;;;6.95;2.60;;;;;;;10.23;74.37;100819.91;1706429;82;25571;-82
2021/05/30 02:03:19;;;;;;;3.85;2.62;;;;;;;10.24;74.46;100823.33;1707015;82;26484;-82
2021/05/30 02:05:49;;;;;;;3.55;2.08;;;;;;;10.24;74.62;100823.33;1707286;82;25583;-82
2021/05/30 02:08:16;;;;;;;3.67;2.72;;;;;;;10.23;74.65;100823.01;1706166;82;25683;-83
2021/05/30 02:10:43;;;;;;;7.30;2.83;;;;;;;10.21;74.84;100821.84;1710125;82;25183;-82
2021/05/30 02:13:09;;;;;;;3.83;2.35;;;;;;;10.17;74.85;100816.56;1706494;82;25602;-83
2021/05/30 02:15:35;;;;;;;5.65;2.42;;;;;;;10.16;75.44;100816.73;1707264;82;25477;-82
2021/05/30 02:18:04;;;;;;;3.30;2.35;;;;;;;10.14;75.22;100815.56;1708271;82;25500;-76
2021/05/30 02:20:38;;;;;;;4.20;2.10;;;;;;;10.13;75.50;100819.16;1707351;82;25585;-82
2021/05/30 02:23:07;;;;;;;3.92;2.27;;;;;;;10.15;75.33;100821.64;1707554;82;25585;-82
2021/05/30 02:25:32;;;;;;;4.35;2.45;;;;;;;10.17;75.64;100819.67;1705529;82;25780;-76
2021/05/30 02:27:59;;;;;;;4.73;2.50;;;;;;;10.13;75.99;100819.66;1681537;83;25601;-75
2021/05/30 02:30:26;;;;;;;6.60;2.22;;;;;;;10.12;76.07;100821.91;1708108;82;25674;-76
2021/05/30 02:32:52;;;;;;;3.47;2.35;;;;;;;10.05;76.28;100823.50;1707773;82;25574;-82
2021/05/30 02:35:18;;;;;;;3.65;2.45;;;;;;;10.06;76.60;100819.91;1706429;82;34721;-83
2021/05/30 02:37:45;;;;;;;5.25;2.65;;;;;;;10.03;77.13;100822.83;1706972;82;25439;-83
2021/05/30 02:40:12;;;;;;;4.28;2.90;;;;;;;9.95;77.88;100832.22;1706636;82;25537;-83
2021/05/30 02:42:38;;;;;;;2.60;2.17;;;;;;;9.95;77.41;100828.30;1702268;82;25605;-83
2021/05/30 02:45:07;;;;;;;2.87;2.10;;;;;;;9.96;77.47;100828.65;1709733;82;26380;-83
2021/05/30 02:47:33;;;;;;;2.90;2.17;;;;;;;9.96;77.65;100831.27;1706629;82;25581;-82
2021/05/30 02:50:00;;;;;;;3.22;1.95;;;;;;;9.95;77.69;100827.48;1705768;82;25582;-76
2021/05/30 02:52:26;;;;;;;4.42;2.60;;;;;;;9.94;79.20;100833.20;1708183;82;26327;-83
2021/05/30 02:54:53;;;;;;;4.30;2.70;;;;;;;9.90;78.41;100833.63;1677227;82;25684;-83
2021/05/30 02:57:19;;;;;;;2.70;2.30;;;;;;;9.89;78.80;100835.92;1711670;82;25616;-82
2021/05/30 02:59:45;;;;;;;2.83;2.15;;;;;;;9.90;78.42;100841.47;1711123;82;34544;-82
2021/05/30 03:02:11;;;;;;;5.70;2.60;;;;;;;9.92;78.72;100840.84;1706097;82;31912;-82
2021/05/30 03:04:37;;;;;;;2.57;2.13;;;;;;;9.93;79.02;100849.84;1707008;82;25561;-82
2021/05/30 03:07:03;;;;;;;5.20;2.67;;;;;;;9.93;78.62;100851.61;1708990;82;30328;-82
2021/05/30 03:09:29;;;;;;;4.03;2.27;;;;;;;9.95;78.61;100853.10;1707899;82;25495;-82
2021/05/30 03:11:55;;;;;;;3.37;2.45;;;;;;;9.96;78.64;100852.64;1708250;82;34706;-76
2021/05/30 03:14:21;;;;;;;3.83;2.20;;;;;;;9.97;78.50;100850.36;1707771;82;25624;-76
2021/05/30 03:16:47;;;;;;;4.40;2.50;;;;;;;9.95;79.24;100853.10;1706284;82;25551;-76
2021/05/30 03:19:13;;;;;;;3.40;2.30;;;;;;;9.91;78.88;100855.69;1708041;82;25230;-76
2021/05/30 03:21:41;;;;;;;4.10;2.75;;;;;;;9.90;79.14;100855.37;1707423;82;25648;-76
2021/05/30 03:24:09;;;;;;;4.05;2.72;;;;;;;9.91;78.88;100857.00;1706122;82;26061;-82
2021/05/30 03:26:36;;;;;;;4.28;2.65;;;;;;;9.91;79.12;100857.48;1709721;82;25132;-82
2021/05/30 03:29:03;;;;;;;3.25;2.42;;;;;;;9.91;78.99;100860.91;1707416;82;26523;-82
2021/05/30 03:31:30;;;;;;;4.53;2.60;;;;;;;9.95;78.93;100861.42;1708020;82;25668;-81
2021/05/30 03:33:56;;;;;;;5.28;2.80;;;;;;;9.96;79.22;100863.09;1707165;82;25604;-82
2021/05/30 03:36:30;;;;;;;3.98;2.77;;;;;;;9.94;79.50;100856.70;1706836;82;34712;-76
2021/05/30 03:39:01;;;;;;;8.23;2.42;;;;;;;9.96;79.42;100856.07;1708733;82;26136;-76
2021/05/30 03:41:24;;;;;;;3.20;2.55;;;;;;;9.97;79.18;100864.23;1707954;82;25769;-76
2021/05/30 03:43:49;;;;;;;3.10;2.55;;;;;;;10.00;79.62;100862.62;1705840;82;25581;-76
2021/05/30 03:46:14;;;;;;;4.17;3.07;;;;;;;9.99;79.43;100855.77;1706701;82;26013;-76
2021/05/30 03:48:40;;;;;;;5.03;2.17;;;;;;;9.96;79.31;100856.07;1707274;82;34647;-75
2021/05/30 03:51:06;;;;;;;4.12;2.98;;;;;;;9.96;79.48;100859.98;1712135;82;25262;-82
2021/05/30 03:53:32;;;;;;;3.13;2.33;;;;;;;9.96;79.36;100855.25;1707718;82;25301;-76
2021/05/30 03:55:58;;;;;;;3.53;2.73;;;;;;;9.98;79.21;100854.59;1706679;82;29402;-83
2021/05/30 03:58:24;;;;;;;4.45;2.52;;;;;;;9.98;79.54;100863.73;1707582;82;25179;-83
2021/05/30 04:00:50;;;;;;;5.10;2.25;;;;;;;9.94;79.54;100861.11;1712022;82;34641;-82
2021/05/30 04:03:16;;;;;;;4.28;2.65;;;;;;;9.94;79.87;100859.80;1702881;82;25187;-82
2021/05/30 04:05:42;;;;;;;4.17;2.63;;;;;;;9.92;79.75;100864.34;1708861;82;25430;-83
2021/05/30 04:08:08;;;;;;;3.53;2.97;;;;;;;9.89;79.79;100860.23;1708101;82;30339;-76
2021/05/30 04:10:34;;;;;;;4.33;2.93;;;;;;;9.89;79.74;100858.11;1710095;82;28398;-76
2021/05/30 04:12:59;;;;;;;4.92;2.87;;;;;;;9.91;79.67;100860.91;1706784;82;35459;-76
2021/05/30 04:15:25;;;;;;;3.55;2.65;;;;;;;9.94;79.68;100861.11;1707514;82;25606;-76
2021/05/30 04:17:51;;;;;;;4.73;2.43;;;;;;;9.94;79.60;100861.11;1707320;82;25795;-76
2021/05/30 04:20:20;;;;;;;4.12;2.72;;;;;;;9.96;79.85;100862.59;1708100;82;25369;-83
2021/05/30 04:22:45;;;;;;;4.42;3.52;;;;;;;10.00;79.82;100865.72;1707622;82;25869;-82
2021/05/30 04:25:14;;;;;;;5.53;2.80;;;;;;;10.04;79.50;100862.32;1708114;82;25179;-82
2021/05/30 04:27:41;;;;;;;5.05;2.70;;;;;;;10.12;79.76;100861.94;1681326;82;25671;-82
2021/05/30 04:30:14;;;;;;;4.40;2.87;;;;;;;10.16;79.90;100865.06;1707640;82;25604;-76
2021/05/30 04:32:42;;;;;;;4.05;3.30;;;;;;;10.21;79.68;100865.44;1707874;82;25488;-83
2021/05/30 04:35:11;;;;;;;4.72;2.80;;;;;;;10.28;79.64;100870.41;1679301;82;25855;-77
2021/05/30 04:37:37;;;;;;;9.18;2.83;;;;;;;10.38;79.49;100865.92;1709105;82;25742;-75
2021/05/30 04:40:05;;;;;;;5.00;3.15;;;;;;;10.48;79.55;100863.73;1710519;82;25400;-82
2021/05/30 04:42:32;;;;;;;6.67;3.10;;;;;;;10.57;79.28;100871.95;1707849;82;25754;-82
2021/05/30 04:44:59;;;;;;;4.47;3.15;;;;;;;10.59;78.89;100866.09;1707825;82;25677;-83
2021/05/30 04:47:25;;;;;;;6.20;3.00;;;;;;;10.63;78.92;100870.84;1707342;82;25136;-83
2021/05/30 04:49:50;;;;;;;4.83;2.92;;;;;;;10.70;78.91;100872.38;1708081;82;35150;-82
2021/05/30 04:52:16;;;;;;;4.28;3.08;;;;;;;10.80;78.95;100874.41;1707262;82;32332;-75
2021/05/30 04:54:42;;;;;;;3.95;2.80;;;;;;;10.83;78.53;100876.72;1707574;82;25666;-75
2021/05/30 04:57:09;;;;;;;4.53;3.00;;;;;;;10.87;78.38;100876.73;1701487;82;30839;-75
2021/05/30 04:59:35;;;;;;;3.98;3.30;;;;;;;10.90;78.48;100869.06;1707856;82;25871;-75
2021/05/30 05:02:01;;;;;;;7.67;3.15;;;;;;;10.89;78.16;100871.36;1707259;82;25534;-76
2021/05/30 05:04:27;;;;;;;4.10;2.90;;;;;;;10.92;78.33;100872.36;1709677;82;32296;-82
2021/05/30 05:06:53;;;;;;;5.08;3.47;;;;;;;10.86;77.96;100869.88;1707951;82;25664;-82
2021/05/30 05:09:19;;;;;;;4.03;3.00;;;;;;;10.87;78.29;100870.69;1708397;82;25922;-82
2021/05/30 05:11:45;;;;;;;3.20;2.60;;;;;;;10.86;78.12;100869.88;1708240;82;25478;-82
2021/05/30 05:14:11;;;;;;;4.47;2.92;;;;;;;10.88;78.15;100869.70;1709327;82;25477;-84
2021/05/30 05:16:39;;;;;;;4.37;3.10;;;;;;;10.92;78.11;100870.23;1709675;82;25644;-84
2021/05/30 05:19:06;;;;;;;6.05;3.12;;;;;;;10.91;78.08;100875.11;1709375;82;25752;-82
2021/05/30 05:21:32;;;;;;;5.95;3.37;;;;;;;10.93;78.28;100876.60;1708098;82;25537;-82
2021/05/30 05:23:58;;;;;;;5.92;3.12;;;;;;;10.94;78.31;100876.11;1705643;82;25519;-82
2021/05/30 05:26:24;;;;;;;5.70;2.90;;;;;;;10.94;78.30;100875.64;1709945;82;25260;-82
2021/05/30 05:28:50;;;;;;;6.45;3.33;;;;;;;10.94;78.53;100877.41;1710133;82;32304;-83
2021/05/30 05:31:16;;;;;;;9.35;3.67;;;;;;;11.00;78.54;100882.05;1704433;82;25762;-82
2021/05/30 05:33:43;;;;;;;4.10;2.98;;;;;;;11.03;78.49;100877.32;1710077;82;25273;-82
2021/05/30 05:36:12;;;;;;;4.33;3.02;;;;;;;11.09;78.29;100877.19;1707993;82;25485;-82
2021/05/30 05:38:38;;;;;;;4.17;3.13;;;;;;;11.16;78.31;100877.37;1696049;82;25994;-77
2021/05/30 05:41:04;;;;;;;4.40;3.00;;;;;;;11.16;78.27;100883.45;1707881;82;32757;-82
2021/05/30 05:43:31;;;;;;;4.03;2.45;;;;;;;11.21;78.60;100885.11;1681384;82;25705;-81
2021/05/30 05:45:57;;;;;;;5.08;2.65;;;;;;;11.24;78.33;100882.64;1705850;82;25198;-83
2021/05/30 05:48:23;;;;;;;5.25;2.98;;;;;;;11.27;78.32;100872.70;1705217;82;25196;-81
2021/05/30 05:50:49;;;;;;;4.62;3.17;;;;;;;11.31;78.34;100877.13;1705959;82;25471;-75
2021/05/30 05:53:16;;;;;;;5.28;2.77;;;;;;;11.37;78.49;100883.03;1706172;82;32307;-75
2021/05/30 05:55:42;;;;;;;5.20;3.08;;;;;;;11.41;78.21;100880.94;1705863;82;25620;-76
2021/05/30 05:58:08;;;;;;;5.65;3.10;;;;;;;11.44;78.17;100881.94;1706728;82;25115;-82
2021/05/30 06:00:35;;;;;;;5.23;3.40;;;;;;;11.47;78.12;100883.73;1706526;82;29890;-83
2021/05/30 06:03:02;;;;;;;4.55;3.45;;;;;;;11.54;78.33;100889.99;1705343;82;25187;-82
2021/05/30 06:05:28;;;;;;;6.30;3.10;;;;;;;11.56;78.07;100887.20;1704961;82;25191;-81
2021/05/30 06:07:56;;;;;;;6.53;3.77;;;;;;;11.59;77.87;100891.30;1706696;82;26301;-83
2021/05/30 06:10:25;;;;;;;4.42;2.92;;;;;;;11.63;78.00;100887.41;1711735;82;25831;-82
2021/05/30 06:12:54;;;;;;;6.15;3.30;;;;;;;11.67;78.01;100889.52;1710831;82;25158;-82
2021/05/30 06:15:21;;;;;;;8.00;2.98;;;;;;;11.65;77.75;100897.20;1706475;82;25238;-83
2021/05/30 06:18:00;;;;;;;7.20;3.30;;;;;;;11.67;77.94;100897.38;1707713;82;25175;-83
2021/05/30 06:20:25;;;;;;;5.83;2.98;;;;;;;11.71;77.94;100898.72;1709473;82;26142;-83
2021/05/30 06:22:54;;;;;;;5.08;3.77;;;;;;;11.70;77.96;100906.25;1707550;82;25604;-83
2021/05/30 06:25:20;;;;;;;3.92;2.83;;;;;;;11.71;77.67;100900.02;1707371;82;25127;-84
2021/05/30 06:27:47;;;;;;;6.45;3.12;;;;;;;11.75;77.70;100908.37;1711717;82;25262;-83
2021/05/30 06:30:14;;;;;;;6.62;3.22;;;;;;;11.75;77.54;100916.23;1710143;82;25485;-83
2021/05/30 06:32:40;;;;;;;5.37;3.67;;;;;;;11.78;77.68;100909.36;1712290;82;25669;-76
2021/05/30 06:35:08;;;;;;;5.13;3.43;;;;;;;11.86;77.71;100905.48;1708503;82;31299;-76
2021/05/30 06:37:34;;;;;;;4.80;3.30;;;;;;;11.95;77.62;100904.55;1708174;82;25687;-76
2021/05/30 06:39:59;;;;;;;5.90;3.20;;;;;;;11.98;77.33;100907.34;1706377;82;34628;-76
2021/05/30 06:42:26;;;;;;;6.53;3.75;;;;;;;12.06;77.50;100909.97;1708310;82;32253;-76
2021/05/30 06:44:52;;;;;;;4.42;3.52;;;;;;;12.14;77.22;100909.98;1705190;82;25486;-76
2021/05/30 06:47:18;;;;;;;6.83;3.37;;;;;;;12.15;77.14;100910.30;1705105;82;32375;-76
2021/05/30 06:49:44;;;;;;;5.20;3.10;;;;;;;12.15;76.88;100906.88;1708113;82;25195;-76
2021/05/30 06:52:10;;;;;;;5.00;3.42;;;;;;;12.23;77.04;100907.38;1705878;82;34668;-83
2021/05/30 06:54:36;;;;;;;6.35;3.30;;;;;;;12.31;77.01;100906.89;1685343;83;32256;-83
2021/05/30 06:57:03;;;;;;;5.47;3.22;;;;;;;12.38;76.89;100909.17;1706842;82;25738;-83
2021/05/30 06:59:29;;;;;;;6.05;3.55;;;;;;;12.40;76.49;100900.66;1708528;82;25787;-83
2021/05/30 07:01:55;;;;;;;5.07;3.27;;;;;;;12.41;76.45;100905.41;1711133;82;29004;-84
2021/05/30 07:04:22;;;;;;;5.30;3.67;;;;;;;12.45;76.55;100901.48;1709388;82;34701;-82
2021/05/30 07:06:49;;;;;;;7.72;3.60;;;;;;;12.47;76.25;100903.45;1713321;82;25143;-83
2021/05/30 07:09:15;;;;;;;4.72;2.98;;;;;;;12.56;76.47;100899.03;1708306;82;25608;-83
2021/05/30 07:11:41;;;;;;;5.37;4.00;;;;;;;12.68;76.34;100902.94;1712438;82;31279;-84
2021/05/30 07:14:07;;;;;;;7.13;3.77;;;;;;;12.76;75.94;100904.24;1707275;82;28885;-77
2021/05/30 07:16:33;;;;;;;5.17;3.10;;;;;;;12.84;75.87;100894.23;1707561;82;25550;-76
2021/05/30 07:18:59;;;;;;;9.08;3.65;;;;;;;13.01;75.74;100904.20;1676377;84;32205;-84
2021/05/30 07:21:25;;;;;;;7.60;3.58;;;;;;;13.17;75.84;100899.41;1708728;82;25671;-82
2021/05/30 07:23:51;;;;;;;5.72;2.72;;;;;;;13.35;75.88;100901.86;1711796;82;25865;-84
2021/05/30 07:26:17;;;;;;;5.17;3.27;;;;;;;13.56;74.66;100903.42;1709903;82;25221;-84
2021/05/30 07:28:46;;;;;;;6.28;3.10;;;;;;;13.57;73.72;100910.80;1713811;82;25757;-75
2021/05/30 07:31:14;;;;;;;6.20;3.22;;;;;;;13.53;73.59;100905.89;1708317;82;25503;-75
2021/05/30 07:33:40;;;;;;;4.45;3.08;;;;;;;13.56;73.41;100902.11;1710611;82;25600;-75
2021/05/30 07:36:06;;;;;;;6.60;3.53;;;;;;;13.60;73.13;100903.39;1711337;82;33741;-75
2021/05/30 07:38:34;;;;;;;3.98;2.87;;;;;;;13.67;73.33;100903.03;1713291;82;25663;-83
2021/05/30 07:41:01;;;;;;;5.03;3.05;;;;;;;13.78;73.13;100900.52;1712076;82;25190;-75
2021/05/30 07:43:27;;;;;;;6.47;2.80;;;;;;;13.85;72.51;100902.77;1710440;82;25550;-76
2021/05/30 07:45:54;;;;;;;4.33;3.10;;;;;;;13.94;71.74;100906.16;1711531;82;25730;-76
2021/05/30 07:48:20;;;;;;;4.05;2.70;;;;;;;14.00;71.10;100908.11;1710630;82;25663;-76
2021/05/30 07:50:48;;;;;;;4.62;3.72;;;;;;;14.04;71.36;100904.63;1707898;82;25648;-76
2021/05/30 07:53:15;;;;;;;6.47;3.15;;;;;;;14.12;71.32;100900.63;1707817;82;25471;-77
2021/05/30 07:55:42;;;;;;;21.93;18.73;;;;;;;14.21;70.92;100907.45;1707882;82;25214;-81
2021/05/30 07:58:08;;;;;;;8.08;3.37;;;;;;;14.28;70.46;100903.65;1713494;82;25511;-81
2021/05/30 08:00:35;;;;;;;5.33;2.95;;;;;;;14.34;70.39;100905.56;1709330;82;25250;-81
2021/05/30 08:03:01;;;;;;;3.42;2.55;;;;;;;14.37;69.78;100898.64;1710219;82;25163;-82
2021/05/30 08:05:27;;;;;;;3.92;2.70;;;;;;;14.46;69.14;100908.13;1708988;82;25151;-82
2021/05/30 08:07:54;;;;;;;2.30;2.10;;;;;;;14.57;68.39;100904.28;1710095;82;25596;-84
2021/05/30 08:10:22;;;;;;;5.10;2.80;;;;;;;14.58;68.05;100896.70;1685830;82;25513;-75
2021/05/30 08:12:50;;;;;;;4.55;3.45;;;;;;;14.58;67.61;100894.06;1704387;82;26252;-82
2021/05/30 08:15:17;;;;;;;4.87;2.85;;;;;;;14.63;67.91;100901.74;1707068;82;25544;-82
2021/05/30 08:17:45;;;;;;;5.80;2.95;;;;;;;14.71;67.70;100903.48;1710172;82;25158;-82
2021/05/30 08:20:13;;;;;;;4.12;2.30;;;;;;;14.80;67.40;100903.72;1709048;82;25211;-82
2021/05/30 08:22:40;;;;;;;5.03;2.70;;;;;;;14.91;67.28;100905.60;1708165;82;25587;-83
2021/05/30 08:25:08;;;;;;;5.35;2.90;;;;;;;15.02;66.88;100904.65;1709444;82;25617;-82
2021/05/30 08:27:34;;;;;;;3.83;2.45;;;;;;;15.13;66.64;100904.70;1707772;82;25522;-83
2021/05/30 08:30:00;;;;;;;4.58;2.40;;;;;;;15.28;66.45;100905.53;1707327;82;25580;-84
2021/05/30 08:32:26;;;;;;;4.20;2.60;;;;;;;15.38;66.18;100902.60;1709035;82;25659;-82
2021/05/30 08:34:53;;;;;;;3.77;2.60;;;;;;;15.42;66.29;100910.47;1708785;82;25539;-82
2021/05/30 08:37:19;;;;;;;5.03;2.75;;;;;;;15.53;65.59;100902.09;1713612;82;25641;-83
2021/05/30 08:39:47;;;;;;;5.00;3.60;;;;;;;15.63;65.18;100907.56;1707153;82;25546;-83
2021/05/30 08:42:14;;;;;;;7.03;2.70;;;;;;;15.57;65.10;100903.04;1706908;82;25216;-82
2021/05/30 08:44:40;;;;;;;8.95;4.08;;;;;;;15.57;65.17;100905.67;1707881;82;25597;-82
2021/05/30 08:47:06;;;;;;;4.33;2.58;;;;;;;15.73;66.06;100906.81;1706108;82;25448;-83
2021/05/30 08:49:32;;;;;;;5.62;2.52;;;;;;;15.87;65.09;100906.45;1704514;82;25447;-83
2021/05/30 08:51:58;;;;;;;4.87;2.83;;;;;;;15.95;64.27;100907.66;1703497;83;25498;-82
2021/05/30 08:54:25;;;;;;;5.53;2.67;;;;;;;15.94;64.42;100905.53;1707210;82;25715;-82
2021/05/30 08:56:51;;;;;;;3.90;2.70;;;;;;;15.90;63.94;100902.94;1703751;82;25228;-82
2021/05/30 08:59:30;;;;;;;4.67;3.75;;;;;;;15.85;63.55;100904.02;1700113;83;27411;-82
2021/05/30 09:02:00;;;;;;;4.97;2.67;;;;;;;15.80;63.83;100897.17;1707989;82;25633;-82
2021/05/30 09:04:38;;;;;;;2.55;2.12;;;;;;;15.98;64.25;100890.14;1710265;82;25565;-75
2021/05/30 09:07:05;;;;;;;6.28;2.65;;;;;;;16.20;63.37;100902.36;1708018;82;25489;-75
2021/05/30 09:09:42;;;;;;;3.22;2.15;;;;;;;16.19;62.50;100902.02;1705295;82;25190;-75
2021/05/30 09:12:37;;;;;;;5.58;2.45;;;;;;;16.21;63.21;100899.21;1702513;83;25631;-82
2021/05/30 09:14:58;;;;;;;4.55;2.30;;;;;;;16.29;61.97;100908.83;1705379;82;25184;-82
2021/05/30 09:17:27;;;;;;;4.45;2.30;;;;;;;16.18;62.01;100903.55;1706095;82;31181;-82
2021/05/30 09:19:55;;;;;;;6.35;2.77;;;;;;;16.12;62.19;100899.84;1712435;82;25439;-82
2021/05/30 09:22:40;;;;;;;6.00;2.27;;;;;;;16.20;61.09;100897.56;1705869;82;25775;-82
2021/05/30 09:25:21;;;;;;;5.00;2.40;;;;;;;16.34;60.62;100896.70;1710850;82;25559;-82
2021/05/30 09:28:01;;;;;;;4.47;1.95;;;;;;;16.52;61.01;100890.95;1707751;82;25537;-82
2021/05/30 09:30:42;;;;;;;3.62;2.35;;;;;;;16.68;60.29;100891.17;1708005;82;25206;-82
2021/05/30 09:33:14;;;;;;;2.70;1.82;;;;;;;16.91;59.11;100892.26;1713782;82;25739;-81
2021/05/30 09:35:45;;;;;;;3.37;2.30;;;;;;;16.91;57.39;100896.73;1706413;82;25502;-81
2021/05/30 09:38:32;;;;;;;5.95;2.55;;;;;;;16.81;58.17;100885.20;1704507;83;25545;-82
2021/05/30 09:41:16;;;;;;;3.75;2.37;;;;;;;16.85;59.38;100889.08;1703657;83;25642;-82
2021/05/30 09:43:51;;;;;;;2.98;2.20;;;;;;;16.84;58.48;100890.91;1703893;82;25549;-82
2021/05/30 09:46:24;;;;;;;8.83;2.15;;;;;;;16.81;56.95;100891.30;1705633;82;26007;-82
2021/05/30 09:48:56;;;;;;;13.10;1.95;;;;;;;16.76;57.88;100892.86;1703703;83;25621;-82
2021/05/30 09:51:39;;;;;;;3.52;1.90;;;;;;;16.72;57.21;100890.27;1704333;83;25549;-82
2021/05/30 09:54:14;;;;;;;3.65;2.12;;;;;;;16.72;57.64;100898.20;1703781;82;25194;-82
2021/05/30 09:56:45;;;;;;;4.40;2.02;;;;;;;16.76;57.36;100892.86;1702846;82;25608;-83
2021/05/30 09:59:16;;;;;;;6.00;2.60;;;;;;;16.84;57.24;100893.55;1702925;82;25568;-82
2021/05/30 10:01:59;;;;;;;2.87;1.75;;;;;;;16.87;57.37;100896.31;1703973;82;25659;-82
2021/05/30 10:04:34;;;;;;;2.05;1.77;;;;;;;16.81;56.07;100897.90;1704284;82;25562;-81
2021/05/30 10:07:04;;;;;;;4.03;2.08;;;;;;;16.70;57.05;100909.47;1700716;82;25827;-82
2021/05/30 10:09:31;;;;;;;2.67;1.77;;;;;;;16.54;57.06;100907.92;1705079;82;26518;-82
2021/05/30 10:11:58;;;;;;;5.05;2.00;;;;;;;16.40;57.25;100909.13;1703096;82;25170;-82
2021/05/30 10:14:26;;;;;;;6.62;2.17;;;;;;;16.27;58.33;100905.55;1704568;82;26197;-82
2021/05/30 10:16:53;;;;;;;2.30;2.10;;;;;;;16.19;58.58;100911.25;1703654;82;25512;-82
2021/05/30 10:19:46;;;;;;;7.60;1.95;;;;;;;16.16;59.11;100903.72;1704479;82;25406;-82
2021/05/30 10:22:16;;;;;;;5.08;2.42;;;;;;;16.15;58.64;100911.33;1703216;82;25559;-82
2021/05/30 10:24:43;;;;;;;6.85;2.05;;;;;;;16.14;58.86;100910.19;1705774;82;25225;-82
2021/05/30 10:27:29;;;;;;;4.60;2.15;;;;;;;16.15;58.72;100911.81;1705079;82;25203;-82
2021/05/30 10:30:10;;;;;;;3.12;1.87;;;;;;;16.20;58.76;100910.27;1705039;82;25562;-82
2021/05/30 10:32:43;;;;;;;4.97;1.67;;;;;;;16.26;57.77;100913.12;1703943;82;25653;-76
2021/05/30 10:35:20;;;;;;;5.08;1.80;;;;;;;16.32;58.09;100907.94;1703893;82;25624;-77
2021/05/30 10:37:49;;;;;;;3.77;1.70;;;;;;;16.37;57.06;100914.78;1704147;82;25183;-75
2021/05/30 10:40:26;;;;;;;4.00;2.02;;;;;;;16.42;58.11;100923.42;1680422;82;25261;-80
2021/05/30 10:43:13;;;;;;;2.80;1.60;;;;;;;16.48;57.81;100919.22;1710627;82;25515;-83
2021/05/30 10:45:51;;;;;;;6.72;2.20;;;;;;;16.50;56.68;100918.02;1705850;82;25461;-84
2021/05/30 10:48:18;;;;;;;3.45;1.60;;;;;;;16.50;56.37;100917.20;1706091;82;25174;-84
2021/05/30 10:51:09;;;;;;;8.83;2.10;;;;;;;16.53;56.14;100918.98;1709290;82;25728;-84
2021/05/30 10:53:46;;;;;;;3.40;1.90;;;;;;;16.57;55.33;100917.58;1708209;82;25454;-82
2021/05/30 10:56:30;;;;;;;2.33;1.42;;;;;;;16.60;56.46;100915.88;1683576;82;25658;-84
2021/05/30 10:59:16;;;;;;;3.15;1.67;;;;;;;16.70;56.37;100908.96;1707257;82;26158;-84
2021/05/30 11:01:44;;;;;;;3.75;1.87;;;;;;;16.73;54.06;100913.05;1707984;82;25211;-83
2021/05/30 11:04:30;;;;;;;3.83;1.40;;;;;;;16.74;54.95;100916.80;1706832;82;25623;-84
2021/05/30 11:07:09;;;;;;;4.35;1.62;;;;;;;16.78;53.57;100914.13;1705061;82;25854;-84
2021/05/30 11:10:01;;;;;;;1.50;1.32;;;;;;;16.82;54.14;100917.19;1685600;82;26593;-83
2021/05/30 11:12:51;;;;;;;3.45;1.20;;;;;;;16.89;52.52;100918.55;1682150;82;25639;-83
2021/05/30 11:15:23;;;;;;;2.17;1.47;;;;;;;17.03;52.65;100920.29;1707177;82;25496;-83
2021/05/30 11:17:55;;;;;;;4.10;1.50;;;;;;;17.26;53.18;100923.97;1708358;82;25553;-83
2021/05/30 11:20:41;;;;;;;2.52;1.20;;;;;;;17.43;51.14;100927.09;1706167;82;25587;-83
2021/05/30 11:23:17;;;;;;;1.55;0.98;;;;;;;17.38;50.93;100930.34;1703844;82;26596;-83
2021/05/30 11:25:54;;;;;;;2.20;1.27;;;;;;;17.33;50.78;100921.37;1706911;82;25694;-83
2021/05/30 11:28:26;;;;;;;3.27;1.27;;;;;;;17.28;50.10;100932.52;1706147;82;25730;-84
2021/05/30 11:30:55;;;;;;;1.90;1.37;;;;;;;17.25;49.37;100921.84;1705386;82;25533;-83
2021/05/30 11:33:26;;;;;;;2.67;1.50;;;;;;;17.26;50.14;100924.78;1707452;82;32222;-83
2021/05/30 11:36:00;;;;;;;2.10;1.07;;;;;;;17.29;49.02;100923.06;1707618;82;25810;-84